Time,TemperatureF,DewpointF,PressureIn,WindDirection,WindDirectionDegrees,WindSpeedMPH,WindSpeedGustMPH,Humidity,HourlyPrecipIn,Conditions,Clouds,dailyrainin,SoftwareType,DateUTC
2013-03-08 00:01:00,32.7,17.5,29.62,NE,45,4.7,4.7,53,0.00,,---,0.00,VWS V14.01,2013-03-08 05:01:00,
2013-03-08 00:02:00,32.7,17.5,29.62,NE,45,2.0,4.7,53,0.00,,---,0.00,VWS V14.01,2013-03-08 05:02:00,
2013-03-08 00:04:00,32.7,17.5,29.62,NE,45,2.2,3.1,53,0.00,,---,0.00,VWS V14.01,2013-03-08 05:04:00,
2013-03-08 00:08:00,32.7,17.5,29.62,NNE,22,4.0,4.0,53,0.00,,---,0.00,VWS V14.01,2013-03-08 05:08:00,
2013-03-08 00:13:00,32.7,17.0,29.65,ENE,68,2.9,3.6,52,0.00,,---,0.00,VWS V14.01,2013-03-08 05:13:00,
2013-03-08 00:18:00,32.7,17.5,29.65,ENE,68,3.6,4.3,53,0.00,,---,0.00,VWS V14.01,2013-03-08 05:18:00,
2013-03-08 00:23:00,32.7,17.0,29.65,ENE,68,2.9,4.0,52,0.00,,---,0.00,VWS V14.01,2013-03-08 05:23:00,
2013-03-08 00:28:00,32.7,17.0,29.65,ENE,68,2.7,3.1,52,0.00,,---,0.00,VWS V14.01,2013-03-08 05:28:00,
2013-03-08 00:33:00,32.5,16.9,29.65,NNE,22,2.2,3.1,52,0.00,,---,0.00,VWS V14.01,2013-03-08 05:33:00,
2013-03-08 00:38:00,32.5,17.3,29.65,ENE,68,2.5,2.5,53,0.00,,---,0.00,VWS V14.01,2013-03-08 05:38:00,
2013-03-08 00:43:00,32.5,17.3,29.65,NNE,22,0.0,2.0,53,0.00,,---,0.00,VWS V14.01,2013-03-08 05:43:00,
2013-03-08 00:48:00,32.5,17.3,29.65,ENE,68,1.6,2.5,53,0.00,,---,0.00,VWS V14.01,2013-03-08 05:48:00,
2013-03-08 00:53:00,32.5,17.3,29.65,North,0,4.0,4.0,53,0.00,,---,0.00,VWS V14.01,2013-03-08 05:53:00,
2013-03-08 00:58:00,32.5,17.3,29.65,ENE,68,1.3,4.3,53,0.00,,---,0.00,VWS V14.01,2013-03-08 05:58:00,
2013-03-08 01:03:00,32.5,17.3,29.65,NE,45,3.4,3.4,53,0.00,,---,0.00,VWS V14.01,2013-03-08 06:03:00,
2013-03-08 01:08:00,32.5,17.3,29.65,NNE,22,3.4,4.3,53,0.00,,---,0.00,VWS V14.01,2013-03-08 06:08:00,
2013-03-08 01:13:00,32.5,17.3,29.65,ENE,68,2.7,2.7,53,0.00,,---,0.00,VWS V14.01,2013-03-08 06:13:00,
2013-03-08 01:18:00,32.5,16.9,29.65,ENE,68,2.5,3.1,52,0.00,,---,0.00,VWS V14.01,2013-03-08 06:18:00,
2013-03-08 01:23:00,32.5,16.9,29.65,ENE,68,2.5,2.5,52,0.00,,---,0.00,VWS V14.01,2013-03-08 06:23:00,
2013-03-08 01:28:00,32.5,16.9,29.65,NE,45,1.6,3.8,52,0.00,,---,0.00,VWS V14.01,2013-03-08 06:28:00,
2013-03-08 01:33:00,32.5,16.9,29.65,ENE,68,2.5,3.1,52,0.00,,---,0.00,VWS V14.01,2013-03-08 06:33:00,
2013-03-08 01:39:00,32.4,16.7,29.65,East,90,2.5,6.7,52,0.00,,---,0.00,VWS V14.01,2013-03-08 06:39:00,
2013-03-08 01:44:00,32.5,16.9,29.65,NNE,22,3.4,5.4,52,0.00,,---,0.00,VWS V14.01,2013-03-08 06:44:00,
2013-03-08 01:50:00,32.5,16.9,29.65,ESE,112,2.5,6.0,52,0.00,,---,0.00,VWS V14.01,2013-03-08 06:50:00,
2013-03-08 01:55:00,32.5,16.9,29.65,ESE,112,3.1,3.4,52,0.00,,---,0.00,VWS V14.01,2013-03-08 06:55:00,
2013-03-08 02:00:00,32.5,16.9,29.62,ENE,68,1.6,3.1,52,0.00,,---,0.00,VWS V14.01,2013-03-08 07:00:00,
2013-03-08 02:06:00,32.5,16.9,29.62,SSE,158,2.7,3.4,52,0.00,,---,0.00,VWS V14.01,2013-03-08 07:06:00,
2013-03-08 02:11:00,32.5,16.9,29.62,WSW,248,2.2,4.0,52,0.00,,---,0.00,VWS V14.01,2013-03-08 07:11:00,
2013-03-08 02:16:00,32.5,16.9,29.62,East,90,3.6,5.6,52,0.00,,---,0.00,VWS V14.01,2013-03-08 07:16:00,
2013-03-08 02:21:00,32.5,16.9,29.62,ENE,68,3.6,3.6,52,0.00,,---,0.00,VWS V14.01,2013-03-08 07:21:00,
2013-03-08 02:26:00,32.5,16.9,29.62,SSE,158,3.4,3.4,52,0.00,,---,0.00,VWS V14.01,2013-03-08 07:26:00,
2013-03-08 02:31:00,32.5,16.9,29.62,ENE,68,3.8,3.8,52,0.00,,---,0.00,VWS V14.01,2013-03-08 07:31:00,
2013-03-08 02:36:00,32.5,16.4,29.62,NNE,22,2.5,3.6,51,0.00,,---,0.00,VWS V14.01,2013-03-08 07:36:00,
2013-03-08 02:41:00,32.5,16.9,29.62,NNE,22,1.6,3.4,52,0.00,,---,0.00,VWS V14.01,2013-03-08 07:41:00,
2013-03-08 02:47:00,32.5,16.9,29.62,ENE,68,1.1,2.5,52,0.00,,---,0.00,VWS V14.01,2013-03-08 07:47:00,
2013-03-08 02:53:00,32.5,16.9,29.62,ENE,68,2.0,3.6,52,0.00,,---,0.00,VWS V14.01,2013-03-08 07:53:00,
2013-03-08 02:58:00,32.5,16.9,29.62,SSE,158,2.0,4.3,52,0.00,,---,0.00,VWS V14.01,2013-03-08 07:58:00,
2013-03-08 03:03:00,32.5,16.9,29.59,East,90,2.7,2.9,52,0.00,,---,0.00,VWS V14.01,2013-03-08 08:03:00,
2013-03-08 03:08:00,32.5,16.9,29.59,ESE,112,2.9,3.1,52,0.00,,---,0.00,VWS V14.01,2013-03-08 08:08:00,
2013-03-08 03:13:00,32.5,16.9,29.59,ESE,112,0.0,0.0,52,0.00,,---,0.00,VWS V14.01,2013-03-08 08:13:00,
2013-03-08 03:18:00,32.5,16.9,29.59,SSW,202,3.8,3.8,52,0.00,,---,0.00,VWS V14.01,2013-03-08 08:18:00,
2013-03-08 03:23:00,32.5,16.9,29.59,SE,135,1.1,1.6,52,0.00,,---,0.00,VWS V14.01,2013-03-08 08:23:00,
2013-03-08 03:28:00,32.7,17.0,29.59,NNE,22,2.0,5.4,52,0.00,,---,0.00,VWS V14.01,2013-03-08 08:28:00,
2013-03-08 03:33:00,32.7,17.0,29.59,East,90,3.4,3.4,52,0.00,,---,0.00,VWS V14.01,2013-03-08 08:33:00,
2013-03-08 03:39:00,32.7,17.0,29.59,ESE,112,1.6,3.1,52,0.00,,---,0.00,VWS V14.01,2013-03-08 08:39:00,
2013-03-08 03:44:00,32.7,17.0,29.59,SW,225,2.0,3.8,52,0.00,,---,0.00,VWS V14.01,2013-03-08 08:44:00,
2013-03-08 03:49:00,32.7,17.5,29.59,ENE,68,2.7,2.7,53,0.00,,---,0.00,VWS V14.01,2013-03-08 08:49:00,
2013-03-08 03:55:00,32.5,17.3,29.59,NNW,338,3.1,5.6,53,0.00,,---,0.00,VWS V14.01,2013-03-08 08:55:00,
2013-03-08 04:01:00,32.5,17.8,29.59,South,180,3.4,3.8,54,0.00,,---,0.00,VWS V14.01,2013-03-08 09:01:00,
2013-03-08 04:06:00,32.5,17.8,29.59,ESE,112,3.6,3.6,54,0.00,,---,0.00,VWS V14.01,2013-03-08 09:06:00,
2013-03-08 04:11:00,32.5,17.8,29.59,ENE,68,2.9,3.4,54,0.00,,---,0.00,VWS V14.01,2013-03-08 09:11:00,
2013-03-08 04:16:00,32.5,18.2,29.59,ENE,68,3.6,3.6,55,0.00,,---,0.00,VWS V14.01,2013-03-08 09:16:00,
2013-03-08 04:22:00,32.4,18.4,29.59,ENE,68,3.4,3.8,56,0.00,,---,0.00,VWS V14.01,2013-03-08 09:22:00,
2013-03-08 04:27:00,32.4,18.4,29.59,NE,45,2.9,3.4,56,0.00,,---,0.00,VWS V14.01,2013-03-08 09:27:00,
2013-03-08 04:32:00,32.4,18.4,29.59,NE,45,0.0,1.3,56,0.00,,---,0.00,VWS V14.01,2013-03-08 09:32:00,
2013-03-08 04:37:00,32.4,18.4,29.59,SSW,202,2.0,2.5,56,0.00,,---,0.00,VWS V14.01,2013-03-08 09:37:00,
2013-03-08 04:42:00,32.5,18.2,29.59,NNE,22,1.1,3.4,55,0.00,,---,0.00,VWS V14.01,2013-03-08 09:42:00,
2013-03-08 04:47:00,32.5,18.2,29.59,East,90,2.7,2.7,55,0.00,,---,0.00,VWS V14.01,2013-03-08 09:47:00,
2013-03-08 04:52:00,32.5,18.2,29.59,ENE,68,0.0,0.0,55,0.00,,---,0.00,VWS V14.01,2013-03-08 09:52:00,
2013-03-08 04:58:00,32.7,17.9,29.62,ENE,68,3.4,4.0,54,0.00,,---,0.00,VWS V14.01,2013-03-08 09:58:00,
2013-03-08 05:03:00,32.7,17.5,29.62,NE,45,1.1,2.5,53,0.00,,---,0.00,VWS V14.01,2013-03-08 10:03:00,
2013-03-08 05:08:00,32.7,17.5,29.62,NE,45,0.0,0.0,53,0.00,,---,0.00,VWS V14.01,2013-03-08 10:08:00,
2013-03-08 05:13:00,32.7,17.5,29.62,NNE,22,0.0,0.0,53,0.00,,---,0.00,VWS V14.01,2013-03-08 10:13:00,
2013-03-08 05:19:00,32.9,17.7,29.62,ENE,68,1.3,3.1,53,0.00,,---,0.00,VWS V14.01,2013-03-08 10:19:00,
2013-03-08 05:24:00,32.9,17.2,29.62,WNW,292,3.1,4.3,52,0.00,,---,0.00,VWS V14.01,2013-03-08 10:24:00,
2013-03-08 05:29:00,33.1,17.4,29.59,ENE,68,3.1,3.1,52,0.00,,---,0.00,VWS V14.01,2013-03-08 10:29:00,
2013-03-08 05:34:00,33.1,17.4,29.59,East,90,2.5,2.9,52,0.00,,---,0.00,VWS V14.01,2013-03-08 10:34:00,
2013-03-08 05:39:00,32.9,17.2,29.59,NNE,22,1.6,3.4,52,0.00,,---,0.00,VWS V14.01,2013-03-08 10:39:00,
2013-03-08 05:45:00,33.1,17.4,29.59,East,90,2.0,2.9,52,0.00,,---,0.00,VWS V14.01,2013-03-08 10:45:00,
2013-03-08 05:50:00,32.9,17.2,29.59,NNE,22,1.1,1.3,52,0.00,,---,0.00,VWS V14.01,2013-03-08 10:50:00,
2013-03-08 05:55:00,32.9,17.2,29.59,NE,45,3.4,3.8,52,0.00,,---,0.00,VWS V14.01,2013-03-08 10:55:00,
2013-03-08 06:00:00,33.1,16.9,29.59,NNE,22,4.7,4.7,51,0.00,,---,0.00,VWS V14.01,2013-03-08 11:00:00,
2013-03-08 06:06:00,33.3,16.6,29.59,ENE,68,3.4,3.6,50,0.00,,---,0.00,VWS V14.01,2013-03-08 11:06:00,
2013-03-08 06:11:00,33.4,16.4,29.59,NE,45,1.1,2.7,49,0.00,,---,0.00,VWS V14.01,2013-03-08 11:11:00,
2013-03-08 06:16:00,33.4,16.8,29.62,NNE,22,1.3,2.2,50,0.00,,---,0.00,VWS V14.01,2013-03-08 11:16:00,
2013-03-08 06:21:00,33.4,16.8,29.62,ENE,68,2.2,2.2,50,0.00,,---,0.00,VWS V14.01,2013-03-08 11:21:00,
2013-03-08 06:26:00,33.4,16.4,29.62,WNW,292,3.6,4.3,49,0.00,,---,0.00,VWS V14.01,2013-03-08 11:26:00,
2013-03-08 06:31:00,33.6,16.5,29.62,NE,45,2.0,4.7,49,0.00,,---,0.00,VWS V14.01,2013-03-08 11:31:00,
2013-03-08 06:36:00,33.6,16.5,29.62,NE,45,1.6,3.1,49,0.00,,---,0.00,VWS V14.01,2013-03-08 11:36:00,
2013-03-08 06:41:00,33.8,16.2,29.62,SW,225,3.6,3.6,48,0.00,,---,0.00,VWS V14.01,2013-03-08 11:41:00,
2013-03-08 06:47:00,34.0,15.9,29.59,ENE,68,3.4,5.6,47,0.00,,---,0.00,VWS V14.01,2013-03-08 11:47:00,
2013-03-08 06:52:00,34.0,15.9,29.59,SSW,202,1.6,3.8,47,0.00,,---,0.00,VWS V14.01,2013-03-08 11:52:00,
2013-03-08 06:58:00,34.2,16.0,29.59,ENE,68,3.1,3.8,47,0.00,,---,0.00,VWS V14.01,2013-03-08 11:58:00,
2013-03-08 07:03:00,34.2,16.0,29.59,North,0,1.3,2.0,47,0.00,,---,0.00,VWS V14.01,2013-03-08 12:03:00,
2013-03-08 07:08:00,34.2,16.5,29.59,ENE,68,2.9,3.1,48,0.00,,---,0.00,VWS V14.01,2013-03-08 12:08:00,
2013-03-08 07:13:00,34.3,16.2,29.62,ESE,112,3.4,3.4,47,0.00,,---,0.00,VWS V14.01,2013-03-08 12:13:00,
2013-03-08 07:18:00,34.5,16.4,29.62,NE,45,1.1,2.7,47,0.00,,---,0.00,VWS V14.01,2013-03-08 12:18:00,
2013-03-08 07:24:00,34.7,16.5,29.62,ENE,68,1.6,2.2,47,0.00,,---,0.00,VWS V14.01,2013-03-08 12:24:00,
2013-03-08 07:29:00,34.9,16.7,29.62,ENE,68,2.0,2.7,47,0.00,,---,0.00,VWS V14.01,2013-03-08 12:29:00,
2013-03-08 07:34:00,35.1,16.9,29.62,ENE,68,2.7,3.1,47,0.00,,---,0.00,VWS V14.01,2013-03-08 12:34:00,
2013-03-08 07:39:00,35.2,17.0,29.62,ENE,68,2.9,2.9,47,0.00,,---,0.00,VWS V14.01,2013-03-08 12:39:00,
2013-03-08 07:44:00,35.4,16.7,29.62,ENE,68,2.2,6.3,46,0.00,,---,0.00,VWS V14.01,2013-03-08 12:44:00,
2013-03-08 07:49:00,35.4,17.2,29.62,East,90,2.9,2.9,47,0.00,,---,0.00,VWS V14.01,2013-03-08 12:49:00,
2013-03-08 07:54:00,35.6,16.9,29.62,ESE,112,2.9,2.9,46,0.00,,---,0.00,VWS V14.01,2013-03-08 12:54:00,
2013-03-08 08:00:00,36.0,16.7,29.62,SSW,202,2.5,3.4,45,0.00,,---,0.00,VWS V14.01,2013-03-08 13:00:00,
2013-03-08 08:05:00,36.1,16.9,29.62,SSW,202,2.5,2.7,45,0.00,,---,0.00,VWS V14.01,2013-03-08 13:05:00,
2013-03-08 08:10:00,36.1,16.4,29.62,WSW,248,2.0,4.7,44,0.00,,---,0.00,VWS V14.01,2013-03-08 13:10:00,
2013-03-08 08:15:00,36.5,16.7,29.62,ENE,68,2.0,2.7,44,0.00,,---,0.00,VWS V14.01,2013-03-08 13:15:00,
2013-03-08 08:20:00,36.9,17.0,29.62,NE,45,0.0,2.9,44,0.00,,---,0.00,VWS V14.01,2013-03-08 13:20:00,
2013-03-08 08:25:00,37.2,17.3,29.62,SSW,202,1.3,3.8,44,0.00,,---,0.00,VWS V14.01,2013-03-08 13:25:00,
2013-03-08 08:30:00,37.4,17.0,29.62,South,180,3.1,3.1,43,0.00,,---,0.00,VWS V14.01,2013-03-08 13:30:00,
2013-03-08 08:35:00,37.8,17.3,29.62,NNE,22,2.2,2.2,43,0.00,,---,0.00,VWS V14.01,2013-03-08 13:35:00,
2013-03-08 08:41:00,38.1,17.1,29.62,East,90,4.3,9.4,42,0.00,,---,0.00,VWS V14.01,2013-03-08 13:41:00,
2013-03-08 08:46:00,38.5,17.4,29.62,SW,225,3.1,4.3,42,0.00,,---,0.00,VWS V14.01,2013-03-08 13:46:00,
2013-03-08 08:51:00,38.8,17.7,29.62,South,180,0.9,1.3,42,0.00,,---,0.00,VWS V14.01,2013-03-08 13:51:00,
2013-03-08 08:56:00,39.0,17.3,29.62,SW,225,6.5,6.5,41,0.00,,---,0.00,VWS V14.01,2013-03-08 13:56:00,
2013-03-08 09:01:00,39.4,17.7,29.62,ENE,68,2.5,4.7,41,0.00,,---,0.00,VWS V14.01,2013-03-08 14:01:00,
2013-03-08 09:06:00,39.6,17.2,29.62,SSW,202,1.6,2.5,40,0.00,,---,0.00,VWS V14.01,2013-03-08 14:06:00,
2013-03-08 09:11:00,40.3,18.5,29.62,NNW,338,3.1,3.1,41,0.00,,---,0.00,VWS V14.01,2013-03-08 14:11:00,
2013-03-08 09:16:00,40.1,17.7,29.62,North,0,4.7,4.7,40,0.00,,---,0.00,VWS V14.01,2013-03-08 14:16:00,
2013-03-08 09:22:00,39.9,17.6,29.62,NNW,338,3.4,9.8,40,0.00,,---,0.00,VWS V14.01,2013-03-08 14:22:00,
2013-03-08 09:28:00,39.9,17.0,29.62,East,90,2.9,6.3,39,0.00,,---,0.00,VWS V14.01,2013-03-08 14:28:00,
2013-03-08 09:33:00,40.1,17.7,29.62,North,0,2.7,4.3,40,0.00,,---,0.00,VWS V14.01,2013-03-08 14:33:00,
2013-03-08 09:38:00,39.9,17.0,29.62,SW,225,2.2,4.7,39,0.00,,---,0.00,VWS V14.01,2013-03-08 14:38:00,
2013-03-08 09:43:00,39.9,17.0,29.62,WSW,248,2.7,7.2,39,0.00,,---,0.00,VWS V14.01,2013-03-08 14:43:00,
2013-03-08 09:48:00,39.9,17.0,29.62,NNW,338,4.3,5.4,39,0.00,,---,0.00,VWS V14.01,2013-03-08 14:48:00,
2013-03-08 09:53:00,40.5,17.5,29.62,NW,315,4.9,8.5,39,0.00,,---,0.00,VWS V14.01,2013-03-08 14:53:00,
2013-03-08 09:58:00,40.6,17.6,29.62,SSW,202,1.1,3.4,39,0.00,,---,0.00,VWS V14.01,2013-03-08 14:58:00,
2013-03-08 10:03:00,40.8,17.8,29.62,SSW,202,2.2,4.3,39,0.00,,---,0.00,VWS V14.01,2013-03-08 15:03:00,
2013-03-08 10:08:00,41.2,18.1,29.62,North,0,1.6,2.9,39,0.00,,---,0.00,VWS V14.01,2013-03-08 15:08:00,
2013-03-08 10:13:00,41.2,18.1,29.62,SSE,158,2.2,2.2,39,0.00,,---,0.00,VWS V14.01,2013-03-08 15:13:00,
2013-03-08 10:18:00,41.2,18.1,29.62,ESE,112,1.3,2.7,39,0.00,,---,0.00,VWS V14.01,2013-03-08 15:18:00,
2013-03-08 10:23:00,41.2,18.1,29.62,East,90,2.7,3.1,39,0.00,,---,0.00,VWS V14.01,2013-03-08 15:23:00,
2013-03-08 10:28:00,41.4,18.3,29.62,West,270,5.4,5.4,39,0.00,,---,0.00,VWS V14.01,2013-03-08 15:28:00,
2013-03-08 10:33:00,41.5,18.4,29.62,SSE,158,2.0,2.5,39,0.00,,---,0.00,VWS V14.01,2013-03-08 15:33:00,
2013-03-08 10:38:00,42.1,18.9,29.62,SW,225,2.5,2.5,39,0.00,,---,0.00,VWS V14.01,2013-03-08 15:38:00,
2013-03-08 10:44:00,42.8,19.0,29.62,ENE,68,3.8,4.0,38,0.00,,---,0.00,VWS V14.01,2013-03-08 15:44:00,
2013-03-08 10:49:00,43.2,19.3,29.62,ENE,68,2.2,4.0,38,0.00,,---,0.00,VWS V14.01,2013-03-08 15:49:00,
2013-03-08 10:54:00,43.5,19.6,29.62,SSE,158,2.2,3.8,38,0.00,,---,0.00,VWS V14.01,2013-03-08 15:54:00,
2013-03-08 10:59:00,43.9,19.9,29.62,East,90,2.9,3.6,38,0.00,,---,0.00,VWS V14.01,2013-03-08 15:59:00,
2013-03-08 11:05:00,44.2,20.3,29.62,NE,45,2.0,3.6,38,0.00,,---,0.00,VWS V14.01,2013-03-08 16:05:00,
2013-03-08 11:10:00,45.0,20.3,29.62,ENE,68,2.0,3.8,37,0.00,,---,0.00,VWS V14.01,2013-03-08 16:10:00,
2013-03-08 11:16:00,46.0,21.2,29.62,SSE,158,0.9,3.6,37,0.00,,---,0.00,VWS V14.01,2013-03-08 16:16:00,
2013-03-08 11:21:00,46.2,21.4,29.62,WNW,292,2.7,3.8,37,0.00,,---,0.00,VWS V14.01,2013-03-08 16:21:00,
2013-03-08 11:26:00,46.8,21.2,29.62,East,90,2.7,3.6,36,0.00,,---,0.00,VWS V14.01,2013-03-08 16:26:00,
2013-03-08 11:31:00,46.2,20.1,29.62,ENE,68,6.0,6.0,35,0.00,,---,0.00,VWS V14.01,2013-03-08 16:31:00,
2013-03-08 11:36:00,45.9,19.8,29.62,East,90,6.3,6.5,35,0.00,,---,0.00,VWS V14.01,2013-03-08 16:36:00,
2013-03-08 11:41:00,45.9,19.8,29.62,SW,225,4.7,5.6,35,0.00,,---,0.00,VWS V14.01,2013-03-08 16:41:00,
2013-03-08 11:46:00,46.0,19.9,29.62,NE,45,2.9,5.8,35,0.00,,---,0.00,VWS V14.01,2013-03-08 16:46:00,
2013-03-08 11:51:00,46.2,20.1,29.62,SSE,158,3.8,3.8,35,0.00,,---,0.00,VWS V14.01,2013-03-08 16:51:00,
2013-03-08 11:56:00,46.6,19.7,29.62,ESE,112,3.8,4.9,34,0.00,,---,0.00,VWS V14.01,2013-03-08 16:56:00,
2013-03-08 12:01:00,46.8,19.2,29.62,ENE,68,5.4,7.2,33,0.00,,---,0.00,VWS V14.01,2013-03-08 17:01:00,
2013-03-08 12:06:00,46.8,19.2,29.62,South,180,4.9,6.7,33,0.00,,---,0.00,VWS V14.01,2013-03-08 17:06:00,
2013-03-08 12:11:00,46.6,19.0,29.62,SW,225,4.9,4.9,33,0.00,,---,0.00,VWS V14.01,2013-03-08 17:11:00,
2013-03-08 12:16:00,47.1,19.5,29.62,SSW,202,4.3,5.6,33,0.00,,---,0.00,VWS V14.01,2013-03-08 17:16:00,
2013-03-08 12:21:00,47.5,19.8,29.62,NW,315,3.4,4.7,33,0.00,,---,0.00,VWS V14.01,2013-03-08 17:21:00,
2013-03-08 12:26:00,47.8,20.1,29.62,NE,45,2.5,4.9,33,0.00,,---,0.00,VWS V14.01,2013-03-08 17:26:00,
2013-03-08 12:32:00,47.7,19.3,29.62,WNW,292,3.4,3.4,32,0.00,,---,0.00,VWS V14.01,2013-03-08 17:32:00,
2013-03-08 12:37:00,47.8,20.1,29.62,NNW,338,2.0,2.5,33,0.00,,---,0.00,VWS V14.01,2013-03-08 17:37:00,
2013-03-08 12:42:00,47.7,20.0,29.62,North,0,5.4,6.5,33,0.00,,---,0.00,VWS V14.01,2013-03-08 17:42:00,
2013-03-08 12:47:00,47.7,20.0,29.62,ENE,68,2.7,2.7,33,0.00,,---,0.00,VWS V14.01,2013-03-08 17:47:00,
2013-03-08 12:52:00,47.7,19.3,29.62,North,0,3.4,8.7,32,0.00,,---,0.00,VWS V14.01,2013-03-08 17:52:00,
2013-03-08 12:57:00,48.2,19.7,29.62,East,90,1.3,3.4,32,0.00,,---,0.00,VWS V14.01,2013-03-08 17:57:00,
2013-03-08 13:02:00,48.7,20.2,29.62,SSW,202,1.3,4.7,32,0.00,,---,0.00,VWS V14.01,2013-03-08 18:02:00,
2013-03-08 13:07:00,48.7,20.2,29.62,SSW,202,2.0,4.7,32,0.00,,---,0.00,VWS V14.01,2013-03-08 18:07:00,
2013-03-08 13:12:00,49.1,20.5,29.59,East,90,2.0,2.5,32,0.00,,---,0.00,VWS V14.01,2013-03-08 18:12:00,
2013-03-08 13:17:00,49.3,19.9,29.59,East,90,2.5,4.5,31,0.00,,---,0.00,VWS V14.01,2013-03-08 18:17:00,
2013-03-08 13:22:00,49.5,20.1,29.59,SSW,202,4.3,5.6,31,0.00,,---,0.00,VWS V14.01,2013-03-08 18:22:00,
2013-03-08 13:27:00,49.3,19.9,29.62,WSW,248,1.6,7.6,31,0.00,,---,0.00,VWS V14.01,2013-03-08 18:27:00,
2013-03-08 13:33:00,49.3,19.2,29.62,NW,315,5.6,5.6,30,0.00,,---,0.00,VWS V14.01,2013-03-08 18:33:00,
2013-03-08 13:38:00,49.6,19.5,29.62,ENE,68,2.9,3.6,30,0.00,,---,0.00,VWS V14.01,2013-03-08 18:38:00,
2013-03-08 13:43:00,50.2,20.0,29.62,East,90,3.6,3.6,30,0.00,,---,0.00,VWS V14.01,2013-03-08 18:43:00,
2013-03-08 13:49:00,50.2,20.0,29.62,NE,45,4.9,4.9,30,0.00,,---,0.00,VWS V14.01,2013-03-08 18:49:00,
2013-03-08 13:54:00,50.4,20.1,29.62,ENE,68,3.4,4.9,30,0.00,,---,0.00,VWS V14.01,2013-03-08 18:54:00,
2013-03-08 13:59:00,50.4,20.1,29.62,WNW,292,2.5,3.4,30,0.00,,---,0.00,VWS V14.01,2013-03-08 18:59:00,
2013-03-08 14:04:00,50.2,19.2,29.62,WNW,292,5.6,6.0,29,0.00,,---,0.00,VWS V14.01,2013-03-08 19:04:00,
2013-03-08 14:09:00,50.0,19.8,29.62,WNW,292,2.7,7.4,30,0.00,,---,0.00,VWS V14.01,2013-03-08 19:09:00,
2013-03-08 14:14:00,49.3,19.2,29.62,East,90,4.0,6.3,30,0.00,,---,0.00,VWS V14.01,2013-03-08 19:14:00,
2013-03-08 14:19:00,49.1,19.0,29.62,South,180,2.0,2.0,30,0.00,,---,0.00,VWS V14.01,2013-03-08 19:19:00,
2013-03-08 14:25:00,48.7,17.9,29.62,East,90,6.3,9.8,29,0.00,,---,0.00,VWS V14.01,2013-03-08 19:25:00,
2013-03-08 14:30:00,48.7,18.7,29.62,NE,45,2.5,8.5,30,0.00,,---,0.00,VWS V14.01,2013-03-08 19:30:00,
2013-03-08 14:36:00,48.6,18.5,29.62,East,90,3.4,6.3,30,0.00,,---,0.00,VWS V14.01,2013-03-08 19:36:00,
2013-03-08 14:41:00,48.4,17.6,29.62,East,90,3.4,3.8,29,0.00,,---,0.00,VWS V14.01,2013-03-08 19:41:00,
2013-03-08 14:47:00,47.8,17.9,29.62,WNW,292,4.0,4.3,30,0.00,,---,0.00,VWS V14.01,2013-03-08 19:47:00,
2013-03-08 14:52:00,47.8,17.9,29.62,ENE,68,4.3,5.4,30,0.00,,---,0.00,VWS V14.01,2013-03-08 19:52:00,
2013-03-08 14:57:00,47.3,17.5,29.62,NNE,22,5.8,7.4,30,0.00,,---,0.00,VWS V14.01,2013-03-08 19:57:00,
2013-03-08 15:02:00,47.1,17.3,29.62,WSW,248,2.9,3.8,30,0.00,,---,0.00,VWS V14.01,2013-03-08 20:02:00,
2013-03-08 15:07:00,46.9,17.1,29.62,SE,135,3.6,3.8,30,0.00,,---,0.00,VWS V14.01,2013-03-08 20:07:00,
2013-03-08 15:12:00,46.8,17.0,29.62,SSE,158,3.8,4.9,30,0.00,,---,0.00,VWS V14.01,2013-03-08 20:12:00,
2013-03-08 15:17:00,46.6,17.6,29.62,ENE,68,3.1,4.3,31,0.00,,---,0.00,VWS V14.01,2013-03-08 20:17:00,
2013-03-08 15:22:00,46.4,17.4,29.62,South,180,2.5,5.8,31,0.00,,---,0.00,VWS V14.01,2013-03-08 20:22:00,
2013-03-08 15:27:00,46.0,17.1,29.62,East,90,8.5,8.5,31,0.00,,---,0.00,VWS V14.01,2013-03-08 20:27:00,
2013-03-08 15:32:00,45.9,17.0,29.62,SSW,202,2.7,7.4,31,0.00,,---,0.00,VWS V14.01,2013-03-08 20:32:00,
2013-03-08 15:37:00,45.7,16.8,29.62,SW,225,2.0,2.0,31,0.00,,---,0.00,VWS V14.01,2013-03-08 20:37:00,
2013-03-08 15:42:00,45.5,16.6,29.62,SSE,158,3.8,3.8,31,0.00,,---,0.00,VWS V14.01,2013-03-08 20:42:00,
2013-03-08 15:48:00,45.3,17.2,29.62,ENE,68,3.4,3.4,32,0.00,,---,0.00,VWS V14.01,2013-03-08 20:48:00,
2013-03-08 15:53:00,45.3,16.5,29.62,WSW,248,4.7,4.7,31,0.00,,---,0.00,VWS V14.01,2013-03-08 20:53:00,
2013-03-08 15:58:00,45.3,16.5,29.65,West,270,5.6,5.6,31,0.00,,---,0.00,VWS V14.01,2013-03-08 20:58:00,
2013-03-08 16:03:00,45.3,16.5,29.65,East,90,2.0,6.5,31,0.00,,---,0.00,VWS V14.01,2013-03-08 21:03:00,
2013-03-08 16:08:00,45.3,16.5,29.65,WNW,292,3.6,6.3,31,0.00,,---,0.00,VWS V14.01,2013-03-08 21:08:00,
2013-03-08 16:13:00,45.1,16.3,29.65,ENE,68,3.1,4.3,31,0.00,,---,0.00,VWS V14.01,2013-03-08 21:13:00,
2013-03-08 16:18:00,44.8,16.7,29.65,NE,45,3.1,8.5,32,0.00,,---,0.00,VWS V14.01,2013-03-08 21:18:00,
2013-03-08 16:23:00,44.6,15.9,29.65,NE,45,3.4,5.4,31,0.00,,---,0.00,VWS V14.01,2013-03-08 21:23:00,
2013-03-08 16:28:00,44.6,16.6,29.65,ENE,68,2.0,3.8,32,0.00,,---,0.00,VWS V14.01,2013-03-08 21:28:00,
2013-03-08 16:33:00,44.4,16.4,29.65,SW,225,1.6,3.1,32,0.00,,---,0.00,VWS V14.01,2013-03-08 21:33:00,
2013-03-08 16:38:00,44.4,16.4,29.65,SSE,158,1.6,2.9,32,0.00,,---,0.00,VWS V14.01,2013-03-08 21:38:00,
2013-03-08 16:43:00,44.2,16.3,29.65,SSW,202,2.2,4.7,32,0.00,,---,0.00,VWS V14.01,2013-03-08 21:43:00,
2013-03-08 16:48:00,44.1,16.1,29.65,East,90,2.9,3.6,32,0.00,,---,0.00,VWS V14.01,2013-03-08 21:48:00,
2013-03-08 16:53:00,43.9,15.9,29.65,ENE,68,1.6,4.0,32,0.00,,---,0.00,VWS V14.01,2013-03-08 21:53:00,
2013-03-08 16:58:00,43.9,15.9,29.65,SSW,202,1.6,2.2,32,0.00,,---,0.00,VWS V14.01,2013-03-08 21:58:00,
2013-03-08 17:03:00,43.5,15.6,29.65,SW,225,2.7,3.1,32,0.00,,---,0.00,VWS V14.01,2013-03-08 22:03:00,
2013-03-08 17:08:00,43.5,15.6,29.65,East,90,3.6,3.6,32,0.00,,---,0.00,VWS V14.01,2013-03-08 22:08:00,
2013-03-08 17:13:00,43.3,15.5,29.65,WSW,248,4.3,4.3,32,0.00,,---,0.00,VWS V14.01,2013-03-08 22:13:00,
2013-03-08 17:18:00,43.2,15.3,29.65,WNW,292,2.5,3.4,32,0.00,,---,0.00,VWS V14.01,2013-03-08 22:18:00,
2013-03-08 17:23:00,42.8,15.0,29.65,NNW,338,2.2,4.0,32,0.00,,---,0.00,VWS V14.01,2013-03-08 22:23:00,
2013-03-08 17:28:00,43.0,15.2,29.68,NNW,338,3.8,4.9,32,0.00,,---,0.00,VWS V14.01,2013-03-08 22:28:00,
2013-03-08 17:33:00,42.8,15.0,29.68,ENE,68,1.6,4.5,32,0.00,,---,0.00,VWS V14.01,2013-03-08 22:33:00,
2013-03-08 17:38:00,42.8,15.0,29.68,WSW,248,5.4,5.4,32,0.00,,---,0.00,VWS V14.01,2013-03-08 22:38:00,
2013-03-08 17:43:00,42.4,15.4,29.68,East,90,1.3,6.0,33,0.00,,---,0.00,VWS V14.01,2013-03-08 22:43:00,
2013-03-08 17:49:00,42.3,15.2,29.68,East,90,1.6,2.5,33,0.00,,---,0.00,VWS V14.01,2013-03-08 22:49:00,
2013-03-08 17:55:00,41.9,15.6,29.68,SSW,202,1.3,1.3,34,0.00,,---,0.00,VWS V14.01,2013-03-08 22:55:00,
2013-03-08 18:01:00,41.9,15.6,29.71,SSW,202,2.5,2.7,34,0.00,,---,0.00,VWS V14.01,2013-03-08 23:01:00,
2013-03-08 18:06:00,41.7,15.4,29.71,South,180,1.1,2.7,34,0.00,,---,0.00,VWS V14.01,2013-03-08 23:06:00,
2013-03-08 18:12:00,41.4,15.1,29.71,SW,225,1.6,2.0,34,0.00,,---,0.00,VWS V14.01,2013-03-08 23:12:00,
2013-03-08 18:18:00,41.5,15.3,29.68,WNW,292,1.3,3.4,34,0.00,,---,0.00,VWS V14.01,2013-03-08 23:18:00,
2013-03-08 18:23:00,41.4,15.1,29.68,NNW,338,0.0,1.3,34,0.00,,---,0.00,VWS V14.01,2013-03-08 23:23:00,
2013-03-08 18:28:00,41.2,15.0,29.68,SW,225,3.4,3.4,34,0.00,,---,0.00,VWS V14.01,2013-03-08 23:28:00,
2013-03-08 18:33:00,41.2,15.0,29.68,NW,315,0.0,2.9,34,0.00,,---,0.00,VWS V14.01,2013-03-08 23:33:00,
2013-03-08 18:38:00,41.0,14.8,29.68,ENE,68,2.5,3.1,34,0.00,,---,0.00,VWS V14.01,2013-03-08 23:38:00,
2013-03-08 18:44:00,40.6,15.1,29.68,SW,225,1.1,3.4,35,0.00,,---,0.00,VWS V14.01,2013-03-08 23:44:00,
2013-03-08 18:49:00,40.6,15.1,29.68,SW,225,2.7,2.7,35,0.00,,---,0.00,VWS V14.01,2013-03-08 23:49:00,
2013-03-08 18:54:00,40.5,15.0,29.68,South,180,0.9,0.9,35,0.00,,---,0.00,VWS V14.01,2013-03-08 23:54:00,
2013-03-08 19:00:00,40.6,15.1,29.71,ENE,68,2.5,2.9,35,0.00,,---,0.00,VWS V14.01,2013-03-09 00:00:00,
2013-03-08 19:05:00,40.5,15.0,29.71,SSW,202,0.9,1.6,35,0.00,,---,0.00,VWS V14.01,2013-03-09 00:05:00,
2013-03-08 19:11:00,39.9,14.5,29.71,WNW,292,2.9,4.7,35,0.00,,---,0.00,VWS V14.01,2013-03-09 00:11:00,
2013-03-08 19:16:00,40.1,14.7,29.71,East,90,2.9,3.4,35,0.00,,---,0.00,VWS V14.01,2013-03-09 00:16:00,
2013-03-08 19:21:00,40.5,15.0,29.71,ENE,68,2.7,3.4,35,0.00,,---,0.00,VWS V14.01,2013-03-09 00:21:00,
2013-03-08 19:26:00,40.6,15.1,29.71,NNE,22,2.5,3.1,35,0.00,,---,0.00,VWS V14.01,2013-03-09 00:26:00,
2013-03-08 19:31:00,40.5,15.0,29.71,ENE,68,2.7,2.7,35,0.00,,---,0.00,VWS V14.01,2013-03-09 00:31:00,
2013-03-08 19:36:00,40.3,15.5,29.71,SSW,202,2.9,2.9,36,0.00,,---,0.00,VWS V14.01,2013-03-09 00:36:00,
2013-03-08 19:41:00,40.3,14.8,29.71,ENE,68,2.0,3.4,35,0.00,,---,0.00,VWS V14.01,2013-03-09 00:41:00,
2013-03-08 19:46:00,39.9,15.1,29.74,ENE,68,1.6,1.6,36,0.00,,---,0.00,VWS V14.01,2013-03-09 00:46:00,
2013-03-08 19:51:00,39.4,14.7,29.74,East,90,2.7,2.7,36,0.00,,---,0.00,VWS V14.01,2013-03-09 00:51:00,
2013-03-08 19:56:00,39.4,14.7,29.74,SW,225,3.1,4.0,36,0.00,,---,0.00,VWS V14.01,2013-03-09 00:56:00,
2013-03-08 20:01:00,39.4,14.7,29.74,WNW,292,7.2,7.2,36,0.00,,---,0.00,VWS V14.01,2013-03-09 01:01:00,
2013-03-08 20:06:00,39.4,14.7,29.74,SE,135,2.0,4.3,36,0.00,,---,0.00,VWS V14.01,2013-03-09 01:06:00,
2013-03-08 20:11:00,39.2,14.5,29.74,East,90,2.0,2.0,36,0.00,,---,0.00,VWS V14.01,2013-03-09 01:11:00,
2013-03-08 20:17:00,38.8,14.2,29.74,East,90,0.0,1.3,36,0.00,,---,0.00,VWS V14.01,2013-03-09 01:17:00,
2013-03-08 20:22:00,38.8,14.2,29.74,North,0,0.0,0.9,36,0.00,,---,0.00,VWS V14.01,2013-03-09 01:22:00,
2013-03-08 20:27:00,38.7,14.0,29.74,South,180,2.0,3.1,36,0.00,,---,0.00,VWS V14.01,2013-03-09 01:27:00,
2013-03-08 20:32:00,38.7,14.0,29.74,SW,225,0.0,1.1,36,0.00,,---,0.00,VWS V14.01,2013-03-09 01:32:00,
2013-03-08 20:37:00,38.5,13.9,29.74,South,180,2.5,2.5,36,0.00,,---,0.00,VWS V14.01,2013-03-09 01:37:00,
2013-03-08 20:42:00,38.1,14.2,29.74,NNW,338,0.0,1.3,37,0.00,,---,0.00,VWS V14.01,2013-03-09 01:42:00,
2013-03-08 20:48:00,37.9,14.0,29.74,ENE,68,1.1,1.1,37,0.00,,---,0.00,VWS V14.01,2013-03-09 01:48:00,
2013-03-08 20:53:00,37.8,13.2,29.74,ESE,112,1.3,1.6,36,0.00,,---,0.00,VWS V14.01,2013-03-09 01:53:00,
2013-03-08 20:58:00,37.6,13.1,29.74,West,270,1.6,2.0,36,0.00,,---,0.00,VWS V14.01,2013-03-09 01:58:00,
2013-03-08 21:03:00,37.6,13.7,29.74,SSW,202,1.6,1.6,37,0.00,,---,0.00,VWS V14.01,2013-03-09 02:03:00,
2013-03-08 21:08:00,37.8,13.8,29.74,ENE,68,2.5,2.5,37,0.00,,---,0.00,VWS V14.01,2013-03-09 02:08:00,
2013-03-08 21:13:00,37.6,13.7,29.74,ENE,68,0.9,2.0,37,0.00,,---,0.00,VWS V14.01,2013-03-09 02:13:00,
2013-03-08 21:18:00,37.0,13.2,29.74,WNW,292,2.5,2.5,37,0.00,,---,0.00,VWS V14.01,2013-03-09 02:18:00,
2013-03-08 21:23:00,37.0,13.8,29.74,SW,225,3.6,3.6,38,0.00,,---,0.00,VWS V14.01,2013-03-09 02:23:00,
2013-03-08 21:28:00,37.0,13.8,29.74,South,180,1.6,1.6,38,0.00,,---,0.00,VWS V14.01,2013-03-09 02:28:00,
2013-03-08 21:33:00,36.7,13.5,29.74,South,180,2.0,2.0,38,0.00,,---,0.00,VWS V14.01,2013-03-09 02:33:00,
2013-03-08 21:38:00,36.7,13.5,29.74,SW,225,0.9,1.3,38,0.00,,---,0.00,VWS V14.01,2013-03-09 02:38:00,
2013-03-08 21:43:00,36.1,13.6,29.74,West,270,3.6,3.6,39,0.00,,---,0.00,VWS V14.01,2013-03-09 02:43:00,
2013-03-08 21:48:00,36.0,13.4,29.74,South,180,1.6,2.0,39,0.00,,---,0.00,VWS V14.01,2013-03-09 02:48:00,
2013-03-08 21:53:00,36.3,13.8,29.74,WNW,292,0.0,1.6,39,0.00,,---,0.00,VWS V14.01,2013-03-09 02:53:00,
2013-03-08 21:58:00,36.5,13.9,29.74,SSW,202,0.0,1.6,39,0.00,,---,0.00,VWS V14.01,2013-03-09 02:58:00,
2013-03-08 22:03:00,36.7,14.1,29.74,West,270,3.1,3.1,39,0.00,,---,0.00,VWS V14.01,2013-03-09 03:03:00,
2013-03-08 22:08:00,36.5,13.9,29.74,South,180,1.3,2.2,39,0.00,,---,0.00,VWS V14.01,2013-03-09 03:08:00,
2013-03-08 22:13:00,36.3,13.8,29.74,West,270,2.5,3.8,39,0.00,,---,0.00,VWS V14.01,2013-03-09 03:13:00,
2013-03-08 22:18:00,36.7,14.1,29.74,East,90,1.6,2.5,39,0.00,,---,0.00,VWS V14.01,2013-03-09 03:18:00,
2013-03-08 22:23:00,36.5,13.9,29.74,SSW,202,0.0,1.3,39,0.00,,---,0.00,VWS V14.01,2013-03-09 03:23:00,
2013-03-08 22:28:00,36.5,13.9,29.74,East,90,0.0,1.3,39,0.00,,---,0.00,VWS V14.01,2013-03-09 03:28:00,
2013-03-08 22:33:00,36.3,14.3,29.74,East,90,1.1,1.6,40,0.00,,---,0.00,VWS V14.01,2013-03-09 03:33:00,
2013-03-08 22:38:00,36.0,14.0,29.74,SSE,158,0.0,2.0,40,0.00,,---,0.00,VWS V14.01,2013-03-09 03:38:00,
2013-03-08 22:43:00,36.0,14.0,29.74,East,90,1.6,1.6,40,0.00,,---,0.00,VWS V14.01,2013-03-09 03:43:00,
2013-03-08 22:48:00,36.0,14.0,29.74,ENE,68,1.6,2.2,40,0.00,,---,0.00,VWS V14.01,2013-03-09 03:48:00,
2013-03-08 22:53:00,36.0,14.0,29.74,East,90,1.6,1.6,40,0.00,,---,0.00,VWS V14.01,2013-03-09 03:53:00,
2013-03-08 22:59:00,36.0,14.0,29.76,ENE,68,1.6,3.4,40,0.00,,---,0.00,VWS V14.01,2013-03-09 03:59:00,
2013-03-08 23:04:00,35.8,13.8,29.76,ESE,112,2.0,2.5,40,0.00,,---,0.00,VWS V14.01,2013-03-09 04:04:00,
2013-03-08 23:09:00,35.8,13.8,29.76,South,180,1.1,2.0,40,0.00,,---,0.00,VWS V14.01,2013-03-09 04:09:00,
2013-03-08 23:15:00,35.6,13.7,29.74,SW,225,2.7,3.4,40,0.00,,---,0.00,VWS V14.01,2013-03-09 04:15:00,
2013-03-08 23:21:00,35.6,13.7,29.74,South,180,0.0,0.0,40,0.00,,---,0.00,VWS V14.01,2013-03-09 04:21:00,
2013-03-08 23:26:00,35.6,13.7,29.74,NNW,338,2.0,2.2,40,0.00,,---,0.00,VWS V14.01,2013-03-09 04:26:00,
2013-03-08 23:32:00,35.4,13.5,29.74,WSW,248,0.9,2.0,40,0.00,,---,0.00,VWS V14.01,2013-03-09 04:32:00,
2013-03-08 23:37:00,34.9,13.0,29.74,SSW,202,2.7,2.7,40,0.00,,---,0.00,VWS V14.01,2013-03-09 04:37:00,
2013-03-08 23:42:00,35.1,13.2,29.74,SSW,202,1.1,1.1,40,0.00,,---,0.00,VWS V14.01,2013-03-09 04:42:00,
2013-03-08 23:47:00,35.4,13.5,29.74,WSW,248,0.0,1.3,40,0.00,,---,0.00,VWS V14.01,2013-03-09 04:47:00,
2013-03-08 23:52:00,35.6,13.7,29.74,South,180,0.0,1.6,40,0.00,,---,0.00,VWS V14.01,2013-03-09 04:52:00,
2013-03-08 23:57:00,35.6,13.7,29.74,WNW,292,2.0,2.7,40,0.00,,---,0.00,VWS V14.01,2013-03-09 04:57:00,